Etusivu
METAR-TAF:

METAR-TAF

Lentoasemat :

Posadas, Argentiina

Leveyspiiri: 27-22S, Pituuspiiri: 055-58W, korkeus merenpinnasta: 131 m

Tämänhetkinen sää

Tämä raportti tehtiin 51 minuuttia sitten, kello 16.00 UTC
Tuuli 10 kn etelästä
Lämpötila 26°C
Kosteus 48%
Ilmanpaine 1013 hPa
Näkyvyys 10 km tai enemmän
Muutamia pilviä 3500 ft:n korkeudessa
Hajanaisia pilviä 20000 ft:n korkeudessa

METAR: SARP 051600Z 18010KT 9999 FEW035 SCT200 26/14 Q1013

Aika: 13:51 (16:51 UTC)

Sääennuste

Tämä raportti tehtiin 5 tuntia ja 51 minuuttia sitten, kello 11.00 UTC
Ennuste voimassa 05. päivästä klo 12 UTC - 06. päivään klo 12 UTC
Tuuli 15 kn etelästä
Näkyvyys 10 km tai enemmän
ei pilviä alle 1500 m:ssä eikä cumulonimbus-pilviä
Tulossa
05. päivästä klo 22 UTC - 05. päivään klo 24 UTC
Tuuli 5 kn etelästä

TAF: SARP 051100Z 0512/0612 18015KT CAVOK TX28/0518Z TN16/0610Z BECMG 0522/0524 18005KT

Säähavainnot ja -ennusteet yli 4000 lentoasemalta (METAR- ja TAF-raportit).

Käytössä olevat sääasemat on merkitty karttaan keltaisilla ja punaisilla pisteillä.

Aseta hiiri pisteen päälle nähdäksesi sääaseman nimen.

Klikkaa sitten nähdäksesi säähavainnot ja -ennusteet.

Kartan vaihtaminen: klikkaa mustalla rastilla varustettuja vihreitä pisteitä, niin voit zoomata sisään; viivalla varustettua vihreää pistettä, niin voit zoomata ulos tai vihreitä nuolia, niin pääset viereisille kartoille.


METAR-TAF: